sensor_id;sensor_type;location;lat;lon;timestamp;P1;durP1;ratioP1;P2;durP2;ratioP2
46597;SDS011;32318;48.858;8.252;2023-05-18T00:01:08;10.45;;;3.75;;
46597;SDS011;32318;48.858;8.252;2023-05-18T00:09:09;11.52;;;4.13;;
46597;SDS011;32318;48.858;8.252;2023-05-18T00:17:09;12.55;;;4.38;;
46597;SDS011;32318;48.858;8.252;2023-05-18T00:25:10;9.27;;;3.97;;
46597;SDS011;32318;48.858;8.252;2023-05-18T00:33:10;9.07;;;3.80;;
46597;SDS011;32318;48.858;8.252;2023-05-18T00:41:10;9.95;;;4.65;;
46597;SDS011;32318;48.858;8.252;2023-05-18T00:49:11;12.52;;;4.28;;
46597;SDS011;32318;48.858;8.252;2023-05-18T00:57:11;14.33;;;4.33;;
46597;SDS011;32318;48.858;8.252;2023-05-18T01:05:12;10.05;;;4.50;;
46597;SDS011;32318;48.858;8.252;2023-05-18T01:13:14;12.17;;;4.50;;
46597;SDS011;32318;48.858;8.252;2023-05-18T01:29:43;21.27;;;7.57;;
46597;SDS011;32318;48.858;8.252;2023-05-18T01:37:44;15.75;;;4.32;;
46597;SDS011;32318;48.858;8.252;2023-05-18T01:45:46;9.75;;;3.95;;
46597;SDS011;32318;48.858;8.252;2023-05-18T01:53:56;10.88;;;4.50;;
46597;SDS011;32318;48.858;8.252;2023-05-18T02:02:01;7.72;;;4.05;;
46597;SDS011;32318;48.858;8.252;2023-05-18T02:10:02;8.35;;;4.03;;
46597;SDS011;32318;48.858;8.252;2023-05-18T02:18:02;9.95;;;4.00;;
46597;SDS011;32318;48.858;8.252;2023-05-18T02:26:03;12.57;;;3.90;;
46597;SDS011;32318;48.858;8.252;2023-05-18T02:34:03;10.57;;;4.15;;
46597;SDS011;32318;48.858;8.252;2023-05-18T02:42:03;12.93;;;4.28;;
46597;SDS011;32318;48.858;8.252;2023-05-18T02:50:04;15.32;;;3.65;;
46597;SDS011;32318;48.858;8.252;2023-05-18T02:58:05;11.70;;;4.05;;
46597;SDS011;32318;48.858;8.252;2023-05-18T03:06:06;18.02;;;3.75;;
46597;SDS011;32318;48.858;8.252;2023-05-18T03:14:08;12.00;;;3.55;;
46597;SDS011;32318;48.858;8.252;2023-05-18T03:22:08;8.48;;;3.13;;
46597;SDS011;32318;48.858;8.252;2023-05-18T03:30:08;12.45;;;3.65;;
46597;SDS011;32318;48.858;8.252;2023-05-18T03:38:09;8.90;;;3.33;;
46597;SDS011;32318;48.858;8.252;2023-05-18T03:46:09;14.02;;;4.18;;
46597;SDS011;32318;48.858;8.252;2023-05-18T03:54:09;12.07;;;3.25;;
46597;SDS011;32318;48.858;8.252;2023-05-18T04:02:10;16.60;;;3.77;;
46597;SDS011;32318;48.858;8.252;2023-05-18T04:10:12;12.25;;;3.70;;
46597;SDS011;32318;48.858;8.252;2023-05-18T04:18:13;12.35;;;3.78;;
46597;SDS011;32318;48.858;8.252;2023-05-18T04:26:13;14.95;;;3.55;;
46597;SDS011;32318;48.858;8.252;2023-05-18T04:34:18;12.03;;;3.87;;
46597;SDS011;32318;48.858;8.252;2023-05-18T04:42:19;15.35;;;4.03;;
46597;SDS011;32318;48.858;8.252;2023-05-18T04:50:20;12.57;;;3.30;;
46597;SDS011;32318;48.858;8.252;2023-05-18T04:58:22;11.35;;;3.47;;
46597;SDS011;32318;48.858;8.252;2023-05-18T05:06:22;11.73;;;3.45;;
46597;SDS011;32318;48.858;8.252;2023-05-18T05:14:22;15.50;;;3.90;;
46597;SDS011;32318;48.858;8.252;2023-05-18T05:22:23;10.40;;;3.45;;
46597;SDS011;32318;48.858;8.252;2023-05-18T05:30:23;14.32;;;3.75;;
46597;SDS011;32318;48.858;8.252;2023-05-18T05:38:23;14.07;;;3.20;;
46597;SDS011;32318;48.858;8.252;2023-05-18T05:46:24;7.50;;;3.17;;
46597;SDS011;32318;48.858;8.252;2023-05-18T05:54:24;15.23;;;3.90;;
46597;SDS011;32318;48.858;8.252;2023-05-18T06:02:24;13.65;;;3.25;;
46597;SDS011;32318;48.858;8.252;2023-05-18T06:10:25;16.45;;;3.38;;
46597;SDS011;32318;48.858;8.252;2023-05-18T06:18:25;22.45;;;3.75;;
46597;SDS011;32318;48.858;8.252;2023-05-18T06:26:25;10.23;;;3.55;;
46597;SDS011;32318;48.858;8.252;2023-05-18T06:34:26;13.98;;;3.70;;
46597;SDS011;32318;48.858;8.252;2023-05-18T06:42:26;11.80;;;3.65;;
46597;SDS011;32318;48.858;8.252;2023-05-18T06:50:26;18.70;;;3.13;;
46597;SDS011;32318;48.858;8.252;2023-05-18T06:58:26;19.50;;;3.28;;
46597;SDS011;32318;48.858;8.252;2023-05-18T07:06:27;9.77;;;2.42;;
46597;SDS011;32318;48.858;8.252;2023-05-18T07:14:27;10.30;;;2.45;;
46597;SDS011;32318;48.858;8.252;2023-05-18T07:22:27;10.95;;;2.53;;
46597;SDS011;32318;48.858;8.252;2023-05-18T07:30:28;17.63;;;3.05;;
46597;SDS011;32318;48.858;8.252;2023-05-18T07:38:28;11.88;;;2.60;;
46597;SDS011;32318;48.858;8.252;2023-05-18T07:46:28;16.08;;;2.95;;
46597;SDS011;32318;48.858;8.252;2023-05-18T07:54:29;11.07;;;2.55;;
46597;SDS011;32318;48.858;8.252;2023-05-18T08:02:29;7.93;;;2.38;;
46597;SDS011;32318;48.858;8.252;2023-05-18T08:10:29;11.63;;;2.60;;
46597;SDS011;32318;48.858;8.252;2023-05-18T08:18:29;13.60;;;2.78;;
46597;SDS011;32318;48.858;8.252;2023-05-18T08:26:30;17.92;;;2.85;;
46597;SDS011;32318;48.858;8.252;2023-05-18T08:34:30;14.82;;;2.70;;
46597;SDS011;32318;48.858;8.252;2023-05-18T08:42:38;14.10;;;2.83;;
46597;SDS011;32318;48.858;8.252;2023-05-18T08:50:39;11.35;;;2.72;;
46597;SDS011;32318;48.858;8.252;2023-05-18T08:58:42;10.55;;;2.80;;
46597;SDS011;32318;48.858;8.252;2023-05-18T09:06:44;13.95;;;2.88;;
46597;SDS011;32318;48.858;8.252;2023-05-18T09:14:46;14.60;;;3.05;;
46597;SDS011;32318;48.858;8.252;2023-05-18T09:22:47;11.40;;;3.35;;
46597;SDS011;32318;48.858;8.252;2023-05-18T09:30:50;13.23;;;2.90;;
46597;SDS011;32318;48.858;8.252;2023-05-18T09:38:52;13.63;;;3.05;;
46597;SDS011;32318;48.858;8.252;2023-05-18T09:46:55;12.70;;;3.30;;
46597;SDS011;32318;48.858;8.252;2023-05-18T09:54:57;13.10;;;3.03;;
46597;SDS011;32318;48.858;8.252;2023-05-18T10:02:59;12.48;;;3.42;;
46597;SDS011;32318;48.858;8.252;2023-05-18T10:11:00;11.77;;;2.37;;
46597;SDS011;32318;48.858;8.252;2023-05-18T10:19:01;10.27;;;3.15;;
46597;SDS011;32318;48.858;8.252;2023-05-18T10:27:06;18.05;;;2.97;;
46597;SDS011;32318;48.858;8.252;2023-05-18T10:35:08;14.48;;;3.80;;
46597;SDS011;32318;48.858;8.252;2023-05-18T10:43:09;10.00;;;2.30;;
46597;SDS011;32318;48.858;8.252;2023-05-18T10:51:11;14.20;;;3.45;;
46597;SDS011;32318;48.858;8.252;2023-05-18T10:59:13;12.00;;;2.40;;
46597;SDS011;32318;48.858;8.252;2023-05-18T11:07:15;12.10;;;2.92;;
46597;SDS011;32318;48.858;8.252;2023-05-18T11:15:16;13.88;;;2.60;;
46597;SDS011;32318;48.858;8.252;2023-05-18T11:23:18;11.57;;;2.45;;
46597;SDS011;32318;48.858;8.252;2023-05-18T11:31:27;8.93;;;2.25;;
46597;SDS011;32318;48.858;8.252;2023-05-18T11:39:54;8.27;;;2.60;;
46597;SDS011;32318;48.858;8.252;2023-05-18T11:47:55;14.45;;;3.13;;
46597;SDS011;32318;48.858;8.252;2023-05-18T11:56:00;8.37;;;2.77;;
46597;SDS011;32318;48.858;8.252;2023-05-18T12:04:01;15.38;;;2.85;;
46597;SDS011;32318;48.858;8.252;2023-05-18T12:12:02;9.20;;;2.10;;
46597;SDS011;32318;48.858;8.252;2023-05-18T12:20:03;18.83;;;3.47;;
46597;SDS011;32318;48.858;8.252;2023-05-18T12:28:04;13.32;;;2.88;;
46597;SDS011;32318;48.858;8.252;2023-05-18T12:36:10;9.98;;;2.40;;
46597;SDS011;32318;48.858;8.252;2023-05-18T12:44:13;14.68;;;2.70;;
46597;SDS011;32318;48.858;8.252;2023-05-18T12:52:14;11.43;;;2.35;;
46597;SDS011;32318;48.858;8.252;2023-05-18T13:00:18;9.55;;;2.55;;
46597;SDS011;32318;48.858;8.252;2023-05-18T13:08:19;16.77;;;2.67;;
46597;SDS011;32318;48.858;8.252;2023-05-18T13:16:22;16.83;;;2.25;;
46597;SDS011;32318;48.858;8.252;2023-05-18T13:24:22;13.65;;;2.38;;
46597;SDS011;32318;48.858;8.252;2023-05-18T13:32:23;17.80;;;3.03;;
46597;SDS011;32318;48.858;8.252;2023-05-18T13:40:23;10.80;;;2.15;;
46597;SDS011;32318;48.858;8.252;2023-05-18T13:48:24;14.77;;;2.08;;
46597;SDS011;32318;48.858;8.252;2023-05-18T13:56:27;23.33;;;3.00;;
46597;SDS011;32318;48.858;8.252;2023-05-18T14:04:27;16.45;;;2.13;;
46597;SDS011;32318;48.858;8.252;2023-05-18T14:12:27;9.23;;;2.17;;
46597;SDS011;32318;48.858;8.252;2023-05-18T14:20:28;13.65;;;2.75;;
46597;SDS011;32318;48.858;8.252;2023-05-18T14:28:28;9.13;;;1.95;;
46597;SDS011;32318;48.858;8.252;2023-05-18T14:36:29;13.85;;;2.40;;
46597;SDS011;32318;48.858;8.252;2023-05-18T14:44:30;23.48;;;2.28;;
46597;SDS011;32318;48.858;8.252;2023-05-18T14:52:30;7.93;;;2.22;;
46597;SDS011;32318;48.858;8.252;2023-05-18T15:00:30;10.52;;;2.65;;
46597;SDS011;32318;48.858;8.252;2023-05-18T15:08:30;8.88;;;1.95;;
46597;SDS011;32318;48.858;8.252;2023-05-18T15:16:31;9.57;;;2.28;;
46597;SDS011;32318;48.858;8.252;2023-05-18T15:24:31;5.53;;;1.52;;
46597;SDS011;32318;48.858;8.252;2023-05-18T15:32:31;10.88;;;1.92;;
46597;SDS011;32318;48.858;8.252;2023-05-18T15:40:32;12.25;;;2.47;;
46597;SDS011;32318;48.858;8.252;2023-05-18T15:48:32;10.10;;;2.17;;
46597;SDS011;32318;48.858;8.252;2023-05-18T15:56:32;8.75;;;1.80;;
46597;SDS011;32318;48.858;8.252;2023-05-18T16:04:33;9.13;;;2.30;;
46597;SDS011;32318;48.858;8.252;2023-05-18T16:12:33;15.32;;;2.58;;
46597;SDS011;32318;48.858;8.252;2023-05-18T16:20:33;13.95;;;1.83;;
46597;SDS011;32318;48.858;8.252;2023-05-18T16:28:33;13.95;;;2.13;;
46597;SDS011;32318;48.858;8.252;2023-05-18T16:36:34;10.37;;;1.70;;
46597;SDS011;32318;48.858;8.252;2023-05-18T16:44:35;7.57;;;1.90;;
46597;SDS011;32318;48.858;8.252;2023-05-18T16:52:40;7.97;;;1.90;;
46597;SDS011;32318;48.858;8.252;2023-05-18T17:00:40;10.25;;;1.92;;
46597;SDS011;32318;48.858;8.252;2023-05-18T17:08:40;10.68;;;2.10;;
46597;SDS011;32318;48.858;8.252;2023-05-18T17:16:40;9.30;;;1.90;;
46597;SDS011;32318;48.858;8.252;2023-05-18T17:24:41;7.57;;;1.67;;
46597;SDS011;32318;48.858;8.252;2023-05-18T17:32:41;6.33;;;2.00;;
46597;SDS011;32318;48.858;8.252;2023-05-18T17:40:44;12.63;;;1.90;;
46597;SDS011;32318;48.858;8.252;2023-05-18T17:48:44;15.40;;;2.05;;
46597;SDS011;32318;48.858;8.252;2023-05-18T17:56:44;8.32;;;1.92;;
46597;SDS011;32318;48.858;8.252;2023-05-18T18:04:45;7.25;;;2.00;;
46597;SDS011;32318;48.858;8.252;2023-05-18T18:12:45;10.35;;;2.60;;
46597;SDS011;32318;48.858;8.252;2023-05-18T18:20:46;15.57;;;3.38;;
46597;SDS011;32318;48.858;8.252;2023-05-18T18:28:46;13.88;;;2.45;;
46597;SDS011;32318;48.858;8.252;2023-05-18T18:36:46;8.05;;;1.80;;
46597;SDS011;32318;48.858;8.252;2023-05-18T18:44:46;13.45;;;2.33;;
46597;SDS011;32318;48.858;8.252;2023-05-18T18:52:47;13.00;;;2.40;;
46597;SDS011;32318;48.858;8.252;2023-05-18T19:00:47;6.57;;;1.95;;
46597;SDS011;32318;48.858;8.252;2023-05-18T19:08:47;7.95;;;2.28;;
46597;SDS011;32318;48.858;8.252;2023-05-18T19:16:48;11.70;;;2.13;;
46597;SDS011;32318;48.858;8.252;2023-05-18T19:24:48;12.37;;;2.33;;
46597;SDS011;32318;48.858;8.252;2023-05-18T19:32:51;17.50;;;2.10;;
46597;SDS011;32318;48.858;8.252;2023-05-18T19:40:52;16.25;;;2.15;;
46597;SDS011;32318;48.858;8.252;2023-05-18T19:48:52;7.40;;;2.05;;
46597;SDS011;32318;48.858;8.252;2023-05-18T19:56:52;8.77;;;2.20;;
46597;SDS011;32318;48.858;8.252;2023-05-18T20:04:54;8.60;;;2.22;;
46597;SDS011;32318;48.858;8.252;2023-05-18T20:12:54;10.93;;;2.50;;
46597;SDS011;32318;48.858;8.252;2023-05-18T20:20:55;13.87;;;3.13;;
46597;SDS011;32318;48.858;8.252;2023-05-18T20:28:56;12.93;;;2.95;;
46597;SDS011;32318;48.858;8.252;2023-05-18T20:36:56;15.68;;;2.67;;
46597;SDS011;32318;48.858;8.252;2023-05-18T20:44:56;10.82;;;2.75;;
46597;SDS011;32318;48.858;8.252;2023-05-18T20:52:57;21.73;;;3.50;;
46597;SDS011;32318;48.858;8.252;2023-05-18T21:00:58;17.30;;;4.40;;
46597;SDS011;32318;48.858;8.252;2023-05-18T21:09:06;13.63;;;3.60;;
46597;SDS011;32318;48.858;8.252;2023-05-18T21:17:06;21.98;;;4.85;;
46597;SDS011;32318;48.858;8.252;2023-05-18T21:25:07;13.68;;;3.30;;
46597;SDS011;32318;48.858;8.252;2023-05-18T21:33:07;10.18;;;2.92;;
46597;SDS011;32318;48.858;8.252;2023-05-18T21:41:07;15.07;;;2.92;;
46597;SDS011;32318;48.858;8.252;2023-05-18T21:49:08;12.27;;;2.67;;
46597;SDS011;32318;48.858;8.252;2023-05-18T21:57:08;11.93;;;2.70;;
46597;SDS011;32318;48.858;8.252;2023-05-18T22:05:08;14.45;;;2.92;;
46597;SDS011;32318;48.858;8.252;2023-05-18T22:13:09;15.37;;;2.77;;
46597;SDS011;32318;48.858;8.252;2023-05-18T22:21:09;12.48;;;2.45;;
46597;SDS011;32318;48.858;8.252;2023-05-18T22:29:10;9.98;;;3.22;;
46597;SDS011;32318;48.858;8.252;2023-05-18T22:37:10;10.13;;;3.20;;
46597;SDS011;32318;48.858;8.252;2023-05-18T22:45:10;10.57;;;2.83;;
46597;SDS011;32318;48.858;8.252;2023-05-18T22:53:11;10.57;;;3.28;;
46597;SDS011;32318;48.858;8.252;2023-05-18T23:01:11;9.70;;;2.80;;
46597;SDS011;32318;48.858;8.252;2023-05-18T23:09:12;9.35;;;2.53;;
46597;SDS011;32318;48.858;8.252;2023-05-18T23:17:12;11.43;;;2.22;;
46597;SDS011;32318;48.858;8.252;2023-05-18T23:25:12;10.68;;;2.65;;
46597;SDS011;32318;48.858;8.252;2023-05-18T23:33:13;12.93;;;3.20;;
46597;SDS011;32318;48.858;8.252;2023-05-18T23:41:13;13.75;;;3.05;;
46597;SDS011;32318;48.858;8.252;2023-05-18T23:49:14;18.10;;;2.55;;
46597;SDS011;32318;48.858;8.252;2023-05-18T23:57:15;12.77;;;2.80;;
